createdAt,value
2018-08-03T00:02:00.913Z,21.08
2018-08-03T00:04:33.392Z,21.04
2018-08-03T00:07:06.564Z,21.06
2018-08-03T00:09:39.984Z,21.14
2018-08-03T00:12:13.580Z,21.25
2018-08-03T00:14:49.355Z,21.31
2018-08-03T00:17:23.723Z,21.27
2018-08-03T00:19:56.848Z,21.29
2018-08-03T00:22:35.243Z,21.30
2018-08-03T00:25:15.467Z,21.19
2018-08-03T00:27:48.145Z,21.05
2018-08-03T00:30:20.849Z,20.93
2018-08-03T00:32:58.760Z,20.84
2018-08-03T00:35:36.528Z,20.73
2018-08-03T00:38:15.007Z,20.67
2018-08-03T00:40:52.929Z,20.64
2018-08-03T00:43:25.348Z,20.62
2018-08-03T00:46:02.992Z,20.67
2018-08-03T00:48:40.501Z,20.78
2018-08-03T00:51:17.980Z,20.97
2018-08-03T00:53:50.747Z,21.05
2018-08-03T00:56:23.126Z,21.10
2018-08-03T00:58:55.693Z,21.09
2018-08-03T01:01:29.784Z,21.11
2018-08-03T01:04:02.641Z,20.96
2018-08-03T01:06:36.570Z,20.79
2018-08-03T01:09:14.417Z,20.65
2018-08-03T01:11:47.822Z,20.52
2018-08-03T01:14:20.443Z,20.44
2018-08-03T01:16:54.099Z,20.40
2018-08-03T01:19:27.043Z,20.30
2018-08-03T01:22:06.499Z,20.24
2018-08-03T01:24:44.213Z,20.22
2018-08-03T01:27:17.756Z,20.44
2018-08-03T01:29:55.744Z,20.51
2018-08-03T01:32:29.715Z,20.87
2018-08-03T01:35:02.224Z,20.98
2018-08-03T01:37:40.317Z,21.10
2018-08-03T01:40:13.260Z,21.13
2018-08-03T01:42:45.856Z,21.10
2018-08-03T01:45:23.286Z,21.14
2018-08-03T01:47:57.065Z,20.97
2018-08-03T01:50:29.717Z,20.80
2018-08-03T01:53:02.330Z,20.65
2018-08-03T01:55:36.002Z,20.62
2018-08-03T01:58:08.681Z,20.54
2018-08-03T02:00:41.226Z,20.42
2018-08-03T02:03:17.595Z,20.21
2018-08-03T02:05:50.364Z,20.07
2018-08-03T02:08:23.088Z,19.84
2018-08-03T02:10:57.139Z,19.71
2018-08-03T02:13:34.661Z,19.74
2018-08-03T02:16:12.256Z,19.81
2018-08-03T02:18:45.077Z,19.87
2018-08-03T02:21:17.616Z,20.05
2018-08-03T02:23:51.068Z,20.02
2018-08-03T02:26:27.527Z,19.93
2018-08-03T02:29:00.725Z,19.90
2018-08-03T02:31:34.823Z,19.97
2018-08-03T02:34:12.887Z,20.07
2018-08-03T02:36:47.504Z,20.05
2018-08-03T02:39:20.769Z,19.98
2018-08-03T02:41:58.807Z,19.89
2018-08-03T02:44:36.774Z,19.74
2018-08-03T02:47:14.563Z,19.61
2018-08-03T02:49:52.000Z,19.69
2018-08-03T02:52:25.104Z,19.79
2018-08-03T02:55:03.571Z,19.84
2018-08-03T02:57:36.086Z,19.91
2018-08-03T03:00:08.102Z,19.96
2018-08-03T03:02:41.963Z,19.87
2018-08-03T03:05:15.679Z,19.82
2018-08-03T03:07:53.806Z,19.94
2018-08-03T03:10:26.365Z,20.18
2018-08-03T03:12:58.960Z,20.25
2018-08-03T03:15:37.399Z,20.17
2018-08-03T03:18:15.558Z,20.05
2018-08-03T03:20:53.569Z,19.85
2018-08-03T03:23:32.244Z,19.78
2018-08-03T03:26:05.273Z,19.66
2018-08-03T03:28:37.740Z,19.71
2018-08-03T03:31:16.538Z,19.59
2018-08-03T03:33:54.705Z,19.49
2018-08-03T03:36:32.301Z,19.41
2018-08-03T03:39:11.524Z,19.32
2018-08-03T03:41:44.003Z,19.19
2018-08-03T03:44:16.563Z,19.13
2018-08-03T03:46:49.613Z,19.31
2018-08-03T03:49:27.323Z,19.32
2018-08-03T03:52:05.488Z,19.31
2018-08-03T03:54:44.932Z,19.20
2018-08-03T03:57:22.184Z,19.11
2018-08-03T04:00:00.393Z,19.13
2018-08-03T04:02:38.306Z,19.19
2018-08-03T04:05:17.511Z,19.19
2018-08-03T04:07:50.084Z,19.11
2018-08-03T04:10:23.629Z,19.05
2018-08-03T04:12:56.306Z,19.10
2018-08-03T04:15:33.677Z,19.24
2018-08-03T04:18:25.885Z,19.15
2018-08-03T04:20:58.626Z,19.03
2018-08-03T04:23:36.891Z,18.99
2018-08-03T04:26:15.072Z,18.99
2018-08-03T04:28:47.590Z,19.06
2018-08-03T04:31:22.015Z,19.10
2018-08-03T04:33:54.392Z,19.12
2018-08-03T04:36:27.796Z,19.28
2018-08-03T04:39:07.801Z,19.22
2018-08-03T04:41:45.898Z,19.16
2018-08-03T04:44:24.169Z,19.12
2018-08-03T04:46:56.817Z,19.13
2018-08-03T04:49:29.841Z,19.17
2018-08-03T04:52:02.687Z,19.24
2018-08-03T04:54:35.053Z,19.42
2018-08-03T04:57:08.645Z,19.74
2018-08-03T04:59:41.534Z,19.97
2018-08-03T05:02:22.126Z,20.20
2018-08-03T05:04:54.707Z,20.31
2018-08-03T05:07:27.645Z,20.34
2018-08-03T05:10:00.789Z,20.41
2018-08-03T05:12:34.280Z,20.47
2018-08-03T05:15:08.724Z,20.68
2018-08-03T05:17:41.178Z,20.83
2018-08-03T05:20:19.177Z,20.87
2018-08-03T05:22:52.352Z,20.92
2018-08-03T05:25:25.032Z,21.09
2018-08-03T05:28:03.812Z,21.20
2018-08-03T05:30:36.580Z,21.28
2018-08-03T05:33:09.513Z,21.52
2018-08-03T05:35:42.178Z,21.61
2018-08-03T05:38:18.041Z,21.71
2018-08-03T05:40:51.212Z,21.88
2018-08-03T05:43:23.736Z,21.87
2018-08-03T05:45:57.873Z,21.88
2018-08-03T05:48:37.082Z,21.98
2018-08-03T05:51:15.465Z,22.10
2018-08-03T05:53:53.348Z,22.22
2018-08-03T05:56:26.004Z,22.34
2018-08-03T05:58:58.460Z,22.53
2018-08-03T06:01:36.585Z,22.57
2018-08-03T06:04:09.649Z,22.67
2018-08-03T06:06:42.346Z,22.77
2018-08-03T06:09:20.142Z,22.93
2018-08-03T06:11:57.356Z,22.93
2018-08-03T06:14:34.718Z,22.97
2018-08-03T06:17:13.882Z,23.08
2018-08-03T06:19:54.141Z,23.29
2018-08-03T06:22:26.765Z,23.34
2018-08-03T06:25:05.301Z,23.41
2018-08-03T06:27:44.592Z,23.51
2018-08-03T06:30:24.900Z,23.67
2018-08-03T06:32:57.796Z,23.89
2018-08-03T06:35:30.446Z,24.01
2018-08-03T06:38:03.104Z,24.19
2018-08-03T06:40:38.301Z,24.38
2018-08-03T06:43:11.500Z,24.57
2018-08-03T06:45:44.840Z,24.74
2018-08-03T06:48:18.346Z,24.85
2018-08-03T06:50:56.136Z,25.02
2018-08-03T06:53:32.187Z,25.17
2018-08-03T06:56:05.130Z,25.30
2018-08-03T06:58:42.631Z,25.44
2018-08-03T07:01:20.237Z,25.53
2018-08-03T07:04:00.600Z,25.65
2018-08-03T07:06:39.537Z,25.77
2018-08-03T07:09:17.900Z,25.84
2018-08-03T07:11:56.814Z,25.93
2018-08-03T07:14:35.630Z,26.02
2018-08-03T07:17:08.892Z,26.09
2018-08-03T07:19:43.598Z,26.26
2018-08-03T07:22:22.517Z,26.35
2018-08-03T07:24:59.933Z,26.45
2018-08-03T07:27:34.622Z,26.59
2018-08-03T07:30:10.418Z,26.77
2018-08-03T07:32:46.428Z,26.98
2018-08-03T07:35:25.784Z,27.27
2018-08-03T07:37:59.693Z,27.71
2018-08-03T07:40:34.223Z,28.29
2018-08-03T07:43:13.200Z,29.16
2018-08-03T07:45:46.237Z,29.68
2018-08-03T07:48:19.589Z,30.21
2018-08-03T07:50:54.296Z,30.67
2018-08-03T07:53:27.612Z,30.88
2018-08-03T07:56:03.985Z,31.44
2018-08-03T07:58:36.893Z,31.63
2018-08-03T08:01:15.979Z,31.83
2018-08-03T08:03:50.321Z,31.82
2018-08-03T08:06:30.194Z,31.97
2018-08-03T08:09:12.689Z,31.92
2018-08-03T08:11:46.081Z,32.00
2018-08-03T08:14:24.634Z,31.93
2018-08-03T08:17:01.708Z,32.08
2018-08-03T08:19:34.129Z,32.03
2018-08-03T08:22:12.817Z,31.80
2018-08-03T08:24:51.421Z,32.12
2018-08-03T08:27:30.605Z,32.34
2018-08-03T08:30:09.173Z,32.48
2018-08-03T08:32:42.621Z,32.40
2018-08-03T08:35:17.539Z,32.57
2018-08-03T08:37:54.141Z,32.52
2018-08-03T08:40:35.523Z,32.65
2018-08-03T08:43:09.887Z,33.08
2018-08-03T08:45:49.800Z,32.65
2018-08-03T08:48:31.295Z,32.44
2018-08-03T08:51:10.160Z,32.61
2018-08-03T08:53:50.156Z,32.73
2018-08-03T08:56:22.729Z,32.98
2018-08-03T08:59:08.928Z,33.25
2018-08-03T09:01:49.642Z,33.47
2018-08-03T09:04:28.089Z,33.21
2018-08-03T09:07:07.176Z,33.43
2018-08-03T09:10:01.020Z,33.68
2018-08-03T09:12:41.770Z,33.97
2018-08-03T09:15:23.325Z,33.87
2018-08-03T09:18:03.260Z,33.68
2018-08-03T09:20:41.536Z,33.82
2018-08-03T09:23:20.219Z,34.43
2018-08-03T09:25:57.843Z,34.84
2018-08-03T09:28:38.633Z,34.53
2018-08-03T09:31:18.356Z,34.60
2018-08-03T09:33:57.046Z,34.76
2018-08-03T09:36:32.861Z,35.21
2018-08-03T09:39:09.534Z,35.32
2018-08-03T09:41:48.170Z,35.05
2018-08-03T09:44:31.485Z,35.16
2018-08-03T09:47:04.300Z,35.26
2018-08-03T09:49:36.776Z,35.27
2018-08-03T09:52:16.685Z,35.05
2018-08-03T09:54:52.240Z,35.22
2018-08-03T09:57:30.579Z,34.72
2018-08-03T10:00:08.399Z,34.26
2018-08-03T10:02:52.636Z,34.23
2018-08-03T10:05:32.728Z,35.03
2018-08-03T10:08:06.593Z,35.65
2018-08-03T10:10:44.719Z,35.56
2018-08-03T10:13:23.115Z,35.83
2018-08-03T10:16:06.784Z,35.89
2018-08-03T10:18:44.617Z,35.97
2018-08-03T10:21:23.508Z,36.08
2018-08-03T10:24:01.805Z,36.18
2018-08-03T10:26:42.021Z,36.51
2018-08-03T10:29:20.822Z,36.70
2018-08-03T10:32:01.114Z,36.23
2018-08-03T10:34:33.852Z,35.76
2018-08-03T10:37:08.467Z,35.70
2018-08-03T10:39:49.715Z,35.65
2018-08-03T10:42:27.953Z,35.97
2018-08-03T10:45:13.033Z,36.35
2018-08-03T10:47:53.802Z,36.60
2018-08-03T10:50:30.740Z,36.33
2018-08-03T10:53:08.091Z,36.53
2018-08-03T10:55:43.483Z,36.91
2018-08-03T10:58:19.584Z,37.23
2018-08-03T11:01:00.175Z,37.53
2018-08-03T11:03:39.955Z,38.08
2018-08-03T11:06:14.205Z,38.20
2018-08-03T11:08:47.964Z,38.31
2018-08-03T11:11:22.140Z,38.68
2018-08-03T11:13:55.250Z,38.56
2018-08-03T11:16:28.428Z,38.40
2018-08-03T11:19:02.004Z,38.13
2018-08-03T11:21:36.377Z,38.11
2018-08-03T11:24:09.817Z,38.54
2018-08-03T11:26:44.882Z,38.67
2018-08-03T11:29:22.883Z,39.01
2018-08-03T11:31:55.845Z,39.43
2018-08-03T11:34:29.903Z,39.53
2018-08-03T11:37:08.348Z,39.78
2018-08-03T11:39:43.824Z,39.92
2018-08-03T11:42:18.071Z,39.62
2018-08-03T11:44:54.444Z,38.93
2018-08-03T11:47:32.843Z,38.90
2018-08-03T11:50:08.816Z,38.99
2018-08-03T11:52:49.407Z,39.61
2018-08-03T11:55:27.560Z,40.10
2018-08-03T11:58:07.964Z,40.33
2018-08-03T12:00:40.828Z,40.71
2018-08-03T12:03:19.576Z,40.60
2018-08-03T12:05:53.659Z,40.38
2018-08-03T12:08:29.805Z,39.67
2018-08-03T12:11:15.075Z,39.47
2018-08-03T12:13:53.721Z,39.85
2018-08-03T12:16:32.900Z,39.61
2018-08-03T12:19:07.657Z,39.58
2018-08-03T12:21:40.345Z,40.01
2018-08-03T12:24:13.016Z,40.69
2018-08-03T12:26:45.679Z,41.18
2018-08-03T12:29:22.044Z,41.18
2018-08-03T12:32:01.296Z,41.02
2018-08-03T12:34:40.407Z,40.57
2018-08-03T12:37:18.252Z,40.29
2018-08-03T12:39:56.074Z,40.18
2018-08-03T12:42:37.372Z,40.06
2018-08-03T12:45:16.622Z,39.94
2018-08-03T12:47:51.912Z,39.44
2018-08-03T12:50:25.516Z,39.21
2018-08-03T12:52:59.957Z,38.97
2018-08-03T12:55:38.887Z,39.12
2018-08-03T12:58:28.784Z,39.57
2018-08-03T13:01:09.238Z,38.82
2018-08-03T13:03:42.017Z,38.25
2018-08-03T13:06:16.095Z,38.40
2018-08-03T13:08:57.601Z,38.82
2018-08-03T13:11:35.804Z,38.90
2018-08-03T13:14:08.348Z,38.61
2018-08-03T13:16:41.356Z,38.67
2018-08-03T13:19:22.160Z,38.97
2018-08-03T13:22:02.333Z,38.95
2018-08-03T13:24:43.509Z,38.99
2018-08-03T13:27:17.334Z,38.02
2018-08-03T13:29:50.484Z,37.64
2018-08-03T13:32:30.099Z,37.75
2018-08-03T13:35:04.413Z,38.01
2018-08-03T13:37:38.800Z,38.49
2018-08-03T13:40:17.070Z,38.67
2018-08-03T13:42:50.793Z,39.23
2018-08-03T13:45:29.986Z,40.04
2018-08-03T13:48:29.715Z,40.15
2018-08-03T13:51:08.166Z,39.91
2018-08-03T13:53:48.408Z,39.92
2018-08-03T13:56:26.803Z,40.00
2018-08-03T13:59:00.635Z,40.36
2018-08-03T14:02:15.206Z,39.96
2018-08-03T14:05:01.450Z,39.88
2018-08-03T14:07:34.257Z,40.14
2018-08-03T14:10:14.286Z,39.65
2018-08-03T14:12:49.512Z,39.22
2018-08-03T14:15:27.628Z,39.34
2018-08-03T14:18:03.315Z,39.11
2018-08-03T14:20:36.289Z,39.01
2018-08-03T14:23:10.047Z,39.42
2018-08-03T14:25:42.512Z,40.42
2018-08-03T14:28:22.711Z,41.21
2018-08-03T14:31:05.008Z,41.38
2018-08-03T14:33:43.286Z,40.95
2018-08-03T14:36:22.968Z,40.51
2018-08-03T14:39:05.313Z,40.42
2018-08-03T14:41:39.308Z,40.23
2018-08-03T14:44:17.672Z,40.17
2018-08-03T14:46:55.401Z,40.36
2018-08-03T14:49:35.472Z,40.74
2018-08-03T14:52:16.594Z,40.13
2018-08-03T14:54:53.785Z,39.79
2018-08-03T14:57:26.661Z,40.52
2018-08-03T15:00:07.747Z,41.03
2018-08-03T15:02:48.884Z,40.76
2018-08-03T15:05:28.400Z,40.86
2018-08-03T15:08:05.823Z,40.46
2018-08-03T15:10:43.541Z,40.06
2018-08-03T15:13:22.975Z,39.90
2018-08-03T15:15:55.598Z,40.18
2018-08-03T15:18:30.104Z,40.57
2018-08-03T15:21:02.757Z,40.60
2018-08-03T15:23:35.945Z,40.88
2018-08-03T15:26:10.688Z,40.87
2018-08-03T15:28:46.248Z,41.09
2018-08-03T15:31:25.044Z,40.91
2018-08-03T15:34:04.143Z,40.66
2018-08-03T15:36:38.125Z,40.45
2018-08-03T15:39:17.774Z,40.71
2018-08-03T15:41:51.232Z,40.56
2018-08-03T15:44:24.152Z,40.64
2018-08-03T15:46:58.579Z,40.32
2018-08-03T15:49:34.999Z,40.16
2018-08-03T15:52:15.911Z,40.16
2018-08-03T15:54:55.320Z,39.93
2018-08-03T15:57:28.815Z,39.79
2018-08-03T16:00:09.416Z,39.93
2018-08-03T16:02:43.126Z,40.08
2018-08-03T16:05:16.057Z,40.26
2018-08-03T16:07:48.619Z,40.34
2018-08-03T16:10:21.167Z,39.93
2018-08-03T16:12:59.818Z,39.89
2018-08-03T16:15:37.782Z,40.21
2018-08-03T16:18:11.077Z,40.05
2018-08-03T16:20:45.600Z,40.15
2018-08-03T16:23:18.461Z,39.82
2018-08-03T16:25:55.245Z,39.51
2018-08-03T16:28:27.760Z,39.79
2018-08-03T16:31:06.204Z,39.93
2018-08-03T16:33:39.548Z,40.00
2018-08-03T16:36:13.539Z,39.85
2018-08-03T16:38:49.756Z,39.59
2018-08-03T16:41:22.745Z,39.30
2018-08-03T16:44:20.792Z,39.29
2018-08-03T16:46:55.547Z,38.83
2018-08-03T16:49:30.943Z,38.48
2018-08-03T16:52:03.538Z,38.40
2018-08-03T16:54:41.229Z,38.35
2018-08-03T16:57:16.625Z,38.06
2018-08-03T16:59:49.788Z,37.88
2018-08-03T17:02:29.968Z,37.70
2018-08-03T17:05:09.932Z,37.55
2018-08-03T17:07:47.103Z,37.25
2018-08-03T17:10:20.428Z,37.10
2018-08-03T17:13:00.314Z,36.85
2018-08-03T17:15:33.060Z,36.47
2018-08-03T17:18:07.867Z,36.01
2018-08-03T17:20:46.221Z,35.82
2018-08-03T17:23:18.796Z,35.76
2018-08-03T17:25:56.013Z,35.70
2018-08-03T17:28:30.760Z,35.57
2018-08-03T17:31:05.368Z,35.43
2018-08-03T17:33:43.684Z,35.24
2018-08-03T17:36:23.743Z,35.21
2018-08-03T17:38:59.824Z,35.01
2018-08-03T17:41:32.689Z,34.74
2018-08-03T17:44:08.050Z,34.55
2018-08-03T17:46:41.838Z,34.42
2018-08-03T17:49:17.592Z,34.29
2018-08-03T17:51:52.800Z,34.25
2018-08-03T17:54:31.848Z,34.22
2018-08-03T17:57:06.177Z,34.11
2018-08-03T17:59:42.848Z,34.05
2018-08-03T18:02:16.854Z,33.93
2018-08-03T18:04:50.867Z,33.74
2018-08-03T18:07:28.165Z,33.65
2018-08-03T18:10:03.538Z,33.56
2018-08-03T18:12:41.988Z,33.57
2018-08-03T18:15:17.596Z,33.50
2018-08-03T18:17:52.827Z,33.45
2018-08-03T18:20:26.480Z,33.38
2018-08-03T18:23:00.902Z,33.24
2018-08-03T18:25:41.350Z,33.10
2018-08-03T18:28:19.848Z,32.87
2018-08-03T18:30:58.937Z,32.63
2018-08-03T18:33:33.581Z,32.49
2018-08-03T18:36:08.854Z,32.30
2018-08-03T18:38:47.691Z,32.09
2018-08-03T18:41:22.748Z,31.96
2018-08-03T18:43:56.647Z,31.82
2018-08-03T18:46:35.205Z,31.76
2018-08-03T18:49:14.891Z,31.68
2018-08-03T18:51:49.763Z,31.54
2018-08-03T18:54:24.671Z,31.39
2018-08-03T18:56:58.612Z,31.34
2018-08-03T18:59:33.300Z,31.20
2018-08-03T19:02:07.818Z,31.04
2018-08-03T19:04:48.426Z,30.86
2018-08-03T19:07:23.768Z,30.77
2018-08-03T19:10:04.124Z,30.68
2018-08-03T19:12:43.097Z,30.47
2018-08-03T19:15:22.231Z,30.29
2018-08-03T19:17:59.117Z,30.16
2018-08-03T19:20:32.932Z,30.09
2018-08-03T19:23:15.251Z,29.91
2018-08-03T19:25:59.124Z,29.74
2018-08-03T19:28:40.720Z,29.60
2018-08-03T19:31:18.728Z,29.53
2018-08-03T19:33:54.828Z,29.37
2018-08-03T19:36:30.476Z,29.19
2018-08-03T19:39:06.994Z,29.06
2018-08-03T19:41:48.995Z,28.91
2018-08-03T19:44:28.308Z,28.76
2018-08-03T19:47:07.034Z,28.66
2018-08-03T19:49:42.032Z,28.53
2018-08-03T19:52:18.304Z,28.49
2018-08-03T19:54:52.909Z,28.38
2018-08-03T19:57:26.968Z,28.30
2018-08-03T20:00:18.283Z,28.23
2018-08-03T20:02:59.051Z,28.17
2018-08-03T20:05:41.737Z,28.09
2018-08-03T20:08:21.512Z,28.04
2018-08-03T20:11:04.699Z,27.96
2018-08-03T20:13:41.045Z,27.91
2018-08-03T20:16:19.333Z,27.92
2018-08-03T20:18:59.580Z,28.04
2018-08-03T20:21:34.648Z,28.03
2018-08-03T20:24:08.773Z,28.02
2018-08-03T20:27:39.837Z,28.01
2018-08-03T20:30:17.620Z,28.04
2018-08-03T20:32:52.655Z,28.01
2018-08-03T20:35:31.729Z,27.96
2018-08-03T20:38:05.480Z,27.89
2018-08-03T20:40:39.366Z,27.92
2018-08-03T20:43:18.049Z,27.90
2018-08-03T20:45:51.287Z,27.90
2018-08-03T20:48:26.673Z,27.92
2018-08-03T20:50:59.844Z,27.99
2018-08-03T20:53:32.263Z,28.01
2018-08-03T20:56:05.361Z,27.94
2018-08-03T20:58:38.406Z,27.87
2018-08-03T21:01:13.344Z,27.83
2018-08-03T21:03:48.484Z,27.79
2018-08-03T21:06:26.573Z,27.80
2018-08-03T21:09:11.992Z,27.92
2018-08-03T21:11:46.919Z,27.80
2018-08-03T21:14:27.091Z,27.71
2018-08-03T21:17:01.637Z,27.67
2018-08-03T21:19:40.503Z,27.64
2018-08-03T21:22:20.290Z,27.54
2018-08-03T21:24:58.116Z,27.49
2018-08-03T21:27:31.252Z,27.45
2018-08-03T21:30:10.019Z,27.47
2018-08-03T21:32:49.344Z,27.37
2018-08-03T21:35:29.068Z,27.27
2018-08-03T21:38:01.657Z,27.23
2018-08-03T21:40:35.830Z,27.25
2018-08-03T21:43:09.923Z,27.26
2018-08-03T21:45:43.539Z,27.15
2018-08-03T21:48:19.210Z,27.11
2018-08-03T21:50:51.704Z,27.09
2018-08-03T21:53:32.203Z,27.19
2018-08-03T21:56:12.156Z,27.18
2018-08-03T21:58:44.775Z,27.10
2018-08-03T22:01:19.675Z,27.06
2018-08-03T22:03:58.832Z,27.09
2018-08-03T22:06:33.665Z,27.00
2018-08-03T22:09:10.028Z,27.02
2018-08-03T22:11:43.942Z,26.98
2018-08-03T22:14:16.856Z,26.91
2018-08-03T22:16:54.752Z,26.84
2018-08-03T22:19:29.497Z,26.77
2018-08-03T22:22:02.049Z,26.69
2018-08-03T22:24:34.847Z,26.83
2018-08-03T22:27:10.323Z,26.88
2018-08-03T22:29:48.238Z,26.82
2018-08-03T22:32:26.252Z,26.81
2018-08-03T22:35:08.695Z,26.72
2018-08-03T22:37:45.397Z,26.68
2018-08-03T22:40:22.036Z,26.74
2018-08-03T22:43:01.707Z,26.71
2018-08-03T22:45:38.879Z,26.70
2018-08-03T22:48:11.819Z,26.78
2018-08-03T22:50:45.834Z,26.71
2018-08-03T22:53:20.857Z,26.73
2018-08-03T22:56:08.468Z,26.72
2018-08-03T22:58:41.835Z,26.61
2018-08-03T23:01:15.226Z,26.65
2018-08-03T23:03:49.976Z,26.62
2018-08-03T23:06:24.353Z,26.75
2018-08-03T23:09:05.031Z,26.71
2018-08-03T23:11:39.032Z,26.61
2018-08-03T23:14:13.933Z,26.64
2018-08-03T23:16:51.860Z,26.65
2018-08-03T23:19:29.671Z,26.60
2018-08-03T23:22:05.637Z,26.72
2018-08-03T23:24:44.393Z,26.60
2018-08-03T23:27:24.140Z,26.45
2018-08-03T23:29:59.178Z,26.49
2018-08-03T23:32:31.668Z,26.48
2018-08-03T23:35:10.413Z,26.55
2018-08-03T23:37:51.313Z,26.48
2018-08-03T23:40:31.911Z,26.49
2018-08-03T23:43:05.441Z,26.62
2018-08-03T23:45:39.191Z,26.62
2018-08-03T23:48:12.732Z,26.59
2018-08-03T23:50:47.126Z,26.52
2018-08-03T23:53:26.547Z,26.47
2018-08-03T23:56:00.109Z,26.51
2018-08-03T23:58:33.465Z,26.52
